Time;durP1;ratioP1;P1;durP2;ratioP2;P2;SDS_P1;SDS_P2;PMS_P1;PMS_P2;Temp;Humidity;BMP_temperature;BMP_pressure;BME280_temperature;BME280_humidity;BME280_pressure;Samples;Min_cycle;Max_cycle;Signal;HPM_P1;HPM_P2
2021/03/18 00:01:11;;;;;;;2.37;1.70;;;11.40;19.60;;;;;;5009892;28;20034;-64
2021/03/18 00:06:58;;;;;;;2.10;1.60;;;11.40;20.30;;;;;;4974341;28;20446;-64
2021/03/18 00:09:24;;;;;;;4.47;1.50;;;11.30;20.70;;;;;;5004511;28;20045;-64
2021/03/18 00:11:51;;;;;;;5.43;1.90;;;11.30;20.80;;;;;;5003024;28;20037;-64
2021/03/18 00:14:21;;;;;;;3.47;2.17;;;11.30;21.20;;;;;;4999215;28;20046;-64
2021/03/18 00:16:47;;;;;;;3.77;2.80;;;11.30;21.70;;;;;;5004769;28;20144;-64
2021/03/18 00:19:13;;;;;;;3.83;2.33;;;11.30;22.20;;;;;;5002271;28;20045;-64
2021/03/18 00:21:39;;;;;;;2.87;2.00;;;11.30;22.00;;;;;;4990936;28;20029;-64
2021/03/18 00:24:05;;;;;;;3.47;2.53;;;11.20;22.30;;;;;;5001912;28;20034;-63
2021/03/18 00:26:32;;;;;;;4.77;2.57;;;11.20;22.50;;;;;;5000648;28;20042;-62
2021/03/18 00:28:59;;;;;;;3.90;2.57;;;11.20;23.10;;;;;;5001169;28;20042;-64
2021/03/18 00:31:27;;;;;;;5.57;2.67;;;11.10;23.00;;;;;;5004735;28;20545;-64
2021/03/18 00:33:54;;;;;;;5.27;2.60;;;11.10;23.00;;;;;;4998600;28;20410;-64
2021/03/18 00:36:20;;;;;;;4.30;3.10;;;11.10;23.20;;;;;;4999709;28;20980;-64
2021/03/18 00:38:46;;;;;;;5.57;2.83;;;11.10;23.70;;;;;;4998232;28;20060;-64
2021/03/18 00:41:12;;;;;;;6.43;3.13;;;11.10;24.10;;;;;;5000220;28;20510;-64
2021/03/18 00:43:39;;;;;;;5.80;3.27;;;11.10;24.20;;;;;;4997030;28;20576;-64
2021/03/18 00:46:05;;;;;;;4.07;2.83;;;11.10;24.30;;;;;;4998414;28;20109;-64
2021/03/18 00:48:33;;;;;;;4.10;2.90;;;11.10;24.50;;;;;;4998473;28;20030;-63
2021/03/18 00:51:02;;;;;;;5.27;3.83;;;11.00;24.50;;;;;;5006574;28;20049;-64
2021/03/18 00:53:36;;;;;;;5.93;3.20;;;11.00;25.00;;;;;;5000285;28;20058;-64
2021/03/18 01:03:05;;;;;;;4.27;3.23;;;11.00;26.10;;;;;;4921604;28;20601;-64
2021/03/18 01:05:56;;;;;;;3.83;3.43;;;11.00;25.50;;;;;;4999755;28;20042;-56
2021/03/18 01:08:25;;;;;;;5.00;3.40;;;10.90;25.90;;;;;;5017975;28;20046;-64
2021/03/18 01:10:56;;;;;;;4.67;3.40;;;10.90;25.70;;;;;;4995610;28;20176;-64
2021/03/18 01:13:22;;;;;;;5.37;3.23;;;10.80;26.10;;;;;;5004024;28;20045;-64
2021/03/18 01:15:58;;;;;;;6.60;3.20;;;10.80;25.80;;;;;;4999228;28;20125;-64
2021/03/18 01:18:29;;;;;;;5.43;3.67;;;10.80;26.30;;;;;;5001457;28;20042;-64
2021/03/18 01:20:55;;;;;;;3.90;3.50;;;10.90;26.00;;;;;;4994917;28;20072;-64
2021/03/18 01:23:21;;;;;;;5.40;3.73;;;10.80;25.90;;;;;;4999614;28;20494;-64
2021/03/18 01:25:46;;;;;;;6.00;3.60;;;10.80;26.00;;;;;;4999425;28;20045;-64
2021/03/18 01:28:12;;;;;;;4.13;2.97;;;10.80;25.90;;;;;;5001143;28;20394;-63
2021/03/18 01:30:41;;;;;;;7.43;3.40;;;10.80;26.00;;;;;;4997921;28;20167;-64
2021/03/18 01:33:08;;;;;;;5.63;3.40;;;10.80;26.00;;;;;;4999801;28;20053;-64
2021/03/18 01:35:34;;;;;;;9.57;3.70;;;10.80;25.90;;;;;;4998619;28;20491;-64
2021/03/18 01:38:00;;;;;;;5.47;3.37;;;10.80;25.70;;;;;;5001305;28;20038;-64
2021/03/18 01:40:30;;;;;;;9.03;3.50;;;10.80;25.90;;;;;;5000907;28;20042;-64
2021/03/18 01:42:57;;;;;;;5.20;3.63;;;10.80;26.00;;;;;;5002577;28;20116;-64
2021/03/18 01:45:23;;;;;;;3.67;3.13;;;10.70;25.80;;;;;;5000280;28;20030;-64
2021/03/18 01:47:51;;;;;;;3.67;3.17;;;10.70;26.20;;;;;;4998889;28;20041;-64
2021/03/18 01:50:19;;;;;;;6.83;3.70;;;10.70;26.20;;;;;;5002349;28;20057;-64
2021/03/18 01:52:45;;;;;;;6.53;4.27;;;10.70;26.20;;;;;;4997717;28;20042;-63
2021/03/18 01:55:17;;;;;;;6.40;4.10;;;10.70;26.30;;;;;;5000035;28;20061;-64
2021/03/18 01:57:43;;;;;;;7.63;3.80;;;10.70;26.80;;;;;;4997789;28;20038;-64
2021/03/18 02:00:10;;;;;;;5.50;3.73;;;10.60;26.40;;;;;;4998550;28;20036;-64
2021/03/18 02:02:37;;;;;;;7.47;3.73;;;10.60;26.50;;;;;;4994562;28;20049;-62
2021/03/18 02:05:03;;;;;;;5.40;4.10;;;10.70;26.50;;;;;;5002883;28;20112;-63
2021/03/18 02:07:30;;;;;;;5.60;4.33;;;10.60;26.60;;;;;;4998215;28;20542;-64
2021/03/18 02:09:56;;;;;;;6.20;3.83;;;10.60;26.50;;;;;;4999995;28;20410;-64
2021/03/18 02:12:22;;;;;;;8.20;3.70;;;10.50;26.90;;;;;;4998146;28;20432;-64
2021/03/18 02:14:48;;;;;;;6.77;4.07;;;10.50;27.00;;;;;;4998959;28;20074;-64
2021/03/18 02:17:47;;;;;;;4.90;3.47;;;10.40;27.30;;;;;;4994726;28;20133;-62
2021/03/18 02:20:41;;;;;;;6.47;3.67;;;10.40;27.60;;;;;;4962922;28;20057;-65
2021/03/18 02:23:42;;;;;;;6.70;4.00;;;10.40;28.00;;;;;;4971854;28;20085;-64
2021/03/18 02:26:36;;;;;;;6.50;4.07;;;10.40;28.00;;;;;;4974838;28;20057;-64
2021/03/18 02:29:32;;;;;;;3.87;3.50;;;10.40;28.20;;;;;;4998602;28;20127;-63
2021/03/18 02:32:16;;;;;;;8.90;3.80;;;10.30;28.10;;;;;;4999337;28;20087;-63
2021/03/18 02:35:00;;;;;;;4.75;3.50;;;10.30;28.30;;;;;;4974288;28;20037;-65
2021/03/18 02:37:30;;;;;;;6.73;4.13;;;10.30;28.00;;;;;;5002298;28;20038;-63
2021/03/18 02:40:25;;;;;;;7.10;4.20;;;10.30;28.10;;;;;;4994511;28;20038;-64
2021/03/18 02:42:58;;;;;;;6.18;4.07;;;10.30;28.80;;;;;;4963626;28;20394;-63
2021/03/18 02:45:28;;;;;;;7.80;4.03;;;10.20;28.50;;;;;;5002753;28;20044;-63
2021/03/18 02:47:59;;;;;;;6.83;4.30;;;10.20;28.50;;;;;;4997981;28;20034;-63
2021/03/18 02:50:28;;;;;;;6.07;3.70;;;10.20;28.70;;;;;;4996538;28;20052;-63
2021/03/18 02:52:55;;;;;;;7.30;3.90;;;10.20;28.30;;;;;;4999344;28;20062;-62
2021/03/18 02:55:22;;;;;;;8.37;4.13;;;10.20;28.40;;;;;;4995662;28;20398;-63
2021/03/18 02:57:50;;;;;;;5.47;3.87;;;10.20;28.20;;;;;;5001756;28;20069;-63
2021/03/18 03:00:17;;;;;;;5.70;4.20;;;10.20;28.30;;;;;;4994386;28;20066;-63
2021/03/18 03:02:43;;;;;;;5.50;4.00;;;10.20;28.30;;;;;;5002147;28;20510;-63
2021/03/18 03:05:09;;;;;;;5.33;3.97;;;10.20;28.30;;;;;;5000793;28;20042;-63
2021/03/18 03:07:35;;;;;;;6.73;3.93;;;10.20;28.70;;;;;;5000455;28;20041;-63
2021/03/18 03:10:06;;;;;;;5.70;4.17;;;10.10;28.50;;;;;;5000875;28;20121;-64
2021/03/18 03:12:33;;;;;;;6.73;3.90;;;10.10;29.10;;;;;;5005817;28;20457;-62
2021/03/18 03:14:59;;;;;;;5.67;4.60;;;9.90;29.50;;;;;;4999307;28;20048;-62
2021/03/18 03:17:27;;;;;;;6.37;4.63;;;9.90;29.40;;;;;;5000675;28;20046;-64
2021/03/18 03:19:55;;;;;;;7.87;4.67;;;10.00;29.40;;;;;;5000262;28;20046;-63
2021/03/18 03:22:22;;;;;;;7.47;4.37;;;10.00;30.10;;;;;;5006547;28;20132;-63
2021/03/18 03:24:48;;;;;;;5.90;4.87;;;10.00;30.70;;;;;;5000305;28;20069;-64
2021/03/18 03:27:15;;;;;;;6.60;4.43;;;9.90;30.80;;;;;;5000835;28;20050;-63
2021/03/18 03:29:42;;;;;;;5.57;3.93;;;9.80;30.90;;;;;;4999025;28;20155;-63
2021/03/18 03:32:09;;;;;;;6.53;4.40;;;9.90;30.70;;;;;;5001113;28;20038;-63
2021/03/18 03:34:36;;;;;;;6.30;4.27;;;9.90;30.50;;;;;;5004134;28;20069;-63
2021/03/18 03:37:02;;;;;;;5.97;3.80;;;9.80;30.70;;;;;;5000555;28;20048;-59
2021/03/18 03:39:28;;;;;;;8.93;4.80;;;9.90;30.60;;;;;;5001365;28;20038;-63
2021/03/18 03:41:54;;;;;;;5.97;4.43;;;9.80;30.80;;;;;;5001913;28;20064;-64
2021/03/18 03:44:20;;;;;;;5.37;4.37;;;9.80;31.20;;;;;;5000445;28;20046;-64
2021/03/18 03:46:46;;;;;;;8.40;4.50;;;9.80;31.40;;;;;;4994471;28;20050;-63
2021/03/18 03:49:13;;;;;;;7.63;4.60;;;9.80;32.20;;;;;;5003638;28;20050;-63
2021/03/18 03:52:07;;;;;;;5.87;4.47;;;9.80;32.60;;;;;;5002833;28;20046;-63
2021/03/18 03:54:36;;;;;;;6.50;4.93;;;9.80;33.80;;;;;;4998069;28;20041;-62
2021/03/18 03:57:27;;;;;;;5.90;4.10;;;9.70;33.10;;;;;;5000158;28;20038;-62
2021/03/18 03:59:55;;;;;;;7.50;4.67;;;9.70;34.10;;;;;;5004988;28;20479;-63
2021/03/18 04:02:22;;;;;;;7.70;4.57;;;9.70;33.40;;;;;;4998244;28;20056;-63
2021/03/18 04:04:49;;;;;;;7.20;4.50;;;9.70;34.30;;;;;;5003107;28;20042;-64
2021/03/18 04:07:18;;;;;;;7.63;4.03;;;9.60;34.20;;;;;;5000871;28;20050;-64
2021/03/18 04:09:45;;;;;;;5.73;4.67;;;9.70;33.60;;;;;;5004928;28;20049;-64
2021/03/18 04:12:14;;;;;;;8.13;5.03;;;9.70;34.70;;;;;;5000302;28;20034;-64
2021/03/18 04:14:44;;;;;;;5.90;4.67;;;9.50;34.20;;;;;;5001347;28;20403;-64
2021/03/18 04:17:11;;;;;;;6.40;4.27;;;9.60;34.10;;;;;;4998013;28;20418;-64
2021/03/18 04:19:39;;;;;;;8.23;4.27;;;9.50;34.00;;;;;;5005926;28;20084;-63
2021/03/18 04:22:06;;;;;;;7.70;4.47;;;9.60;34.50;;;;;;5002012;28;20038;-63
2021/03/18 04:24:33;;;;;;;5.57;4.40;;;9.60;34.10;;;;;;5008190;28;20034;-60
2021/03/18 04:26:59;;;;;;;6.50;4.27;;;9.50;34.00;;;;;;5002288;28;20053;-63
2021/03/18 04:29:25;;;;;;;5.87;4.03;;;9.40;34.10;;;;;;5003338;28;20487;-64
2021/03/18 04:31:53;;;;;;;5.57;3.63;;;9.40;34.00;;;;;;5012096;28;20042;-64
2021/03/18 04:34:20;;;;;;;7.07;3.90;;;9.50;34.10;;;;;;5001427;28;20046;-64
2021/03/18 04:36:49;;;;;;;5.93;3.47;;;9.40;33.50;;;;;;5007231;28;20045;-64
2021/03/18 04:39:16;;;;;;;6.50;4.07;;;9.50;33.70;;;;;;5003885;28;20034;-64
2021/03/18 04:41:42;;;;;;;6.40;3.93;;;9.40;33.40;;;;;;5020238;28;20034;-63
2021/03/18 04:44:09;;;;;;;6.43;3.97;;;9.40;33.70;;;;;;5003606;28;20030;-64
2021/03/18 04:46:37;;;;;;;4.70;3.33;;;9.50;33.50;;;;;;5005879;28;20076;-63
2021/03/18 04:49:04;;;;;;;8.30;3.93;;;9.40;33.60;;;;;;5000929;28;20058;-63
2021/03/18 04:51:31;;;;;;;4.03;3.30;;;9.40;33.90;;;;;;5009081;28;20065;-64
2021/03/18 04:53:58;;;;;;;5.30;3.80;;;9.50;33.80;;;;;;4994490;28;20491;-64
2021/03/18 04:56:25;;;;;;;6.10;3.57;;;9.40;34.00;;;;;;5007143;28;20045;-64
2021/03/18 04:58:52;;;;;;;5.33;3.77;;;9.40;34.40;;;;;;5003445;28;20057;-64
2021/03/18 05:01:21;;;;;;;4.50;3.37;;;9.30;34.20;;;;;;5007306;28;20461;-63
2021/03/18 05:03:47;;;;;;;5.27;4.20;;;9.20;33.80;;;;;;5004250;28;20077;-64
2021/03/18 05:06:14;;;;;;;4.67;3.60;;;9.10;33.70;;;;;;5001329;28;20100;-64
2021/03/18 05:08:40;;;;;;;5.07;3.80;;;9.20;34.40;;;;;;4999685;28;20049;-64
2021/03/18 05:11:08;;;;;;;4.20;3.23;;;9.20;34.10;;;;;;4999678;28;20033;-64
2021/03/18 05:13:35;;;;;;;6.00;3.37;;;9.20;33.90;;;;;;5002170;28;20050;-63
2021/03/18 05:16:03;;;;;;;8.13;3.47;;;9.20;33.70;;;;;;5000117;28;20038;-64
2021/03/18 05:18:31;;;;;;;5.53;3.73;;;9.20;34.10;;;;;;5001552;28;20046;-64
2021/03/18 05:20:58;;;;;;;6.43;4.07;;;9.10;34.60;;;;;;5001339;28;20042;-63
2021/03/18 05:23:25;;;;;;;8.13;4.10;;;9.10;35.10;;;;;;5004998;28;20127;-64
2021/03/18 05:25:50;;;;;;;4.77;3.23;;;8.90;35.70;;;;;;4998508;28;20045;-64
2021/03/18 05:28:16;;;;;;;7.17;3.83;;;9.00;35.60;;;;;;5005830;28;20029;-63
2021/03/18 05:30:42;;;;;;;4.90;3.07;;;8.90;35.90;;;;;;4998765;28;20050;-63
2021/03/18 05:33:09;;;;;;;5.47;3.60;;;8.90;36.50;;;;;;5004189;28;20050;-63
2021/03/18 05:35:37;;;;;;;8.77;3.70;;;8.80;36.70;;;;;;5001458;28;20107;-62
2021/03/18 05:38:04;;;;;;;7.80;3.50;;;8.90;37.50;;;;;;5003312;28;20038;-63
2021/03/18 05:40:30;;;;;;;8.10;3.80;;;8.80;37.50;;;;;;4997575;28;20049;-63
2021/03/18 05:42:57;;;;;;;6.97;3.67;;;8.80;37.40;;;;;;5007283;28;20046;-63
2021/03/18 05:45:22;;;;;;;6.07;3.43;;;8.80;37.50;;;;;;4998839;28;20124;-63
2021/03/18 05:47:49;;;;;;;6.43;3.70;;;8.90;37.90;;;;;;5003408;28;20583;-63
2021/03/18 05:50:17;;;;;;;8.73;4.17;;;8.90;37.80;;;;;;5000961;28;20034;-64
2021/03/18 05:52:43;;;;;;;4.70;3.80;;;8.90;37.60;;;;;;5002961;28;20499;-63
2021/03/18 05:55:10;;;;;;;7.23;3.80;;;8.90;37.80;;;;;;5000208;28;20037;-63
2021/03/18 05:57:40;;;;;;;8.87;3.93;;;8.90;38.00;;;;;;4994765;28;20097;-63
2021/03/18 06:00:11;;;;;;;8.17;4.13;;;8.80;38.90;;;;;;5002101;28;20034;-63
2021/03/18 06:02:37;;;;;;;5.97;3.60;;;8.90;38.10;;;;;;4993093;28;20632;-62
2021/03/18 06:05:11;;;;;;;5.97;3.77;;;8.90;38.10;;;;;;5002047;28;20049;-64
2021/03/18 06:07:39;;;;;;;5.50;3.33;;;8.90;38.30;;;;;;5000901;28;20054;-63
2021/03/18 06:10:16;;;;;;;6.23;3.90;;;8.90;38.30;;;;;;5004815;28;20056;-63
2021/03/18 06:12:42;;;;;;;5.60;4.07;;;9.00;38.60;;;;;;4998306;28;20474;-64
2021/03/18 06:15:10;;;;;;;9.20;3.50;;;8.90;38.70;;;;;;5002081;28;20041;-64
2021/03/18 06:17:36;;;;;;;6.97;3.80;;;9.00;38.90;;;;;;4997139;28;20082;-63
2021/03/18 06:20:05;;;;;;;4.83;3.53;;;8.80;38.90;;;;;;5003434;28;20045;-64
2021/03/18 06:22:39;;;;;;;7.30;4.23;;;9.00;38.80;;;;;;4995994;28;20046;-64
2021/03/18 06:25:18;;;;;;;7.50;4.03;;;8.90;38.90;;;;;;4995471;28;20045;-63
2021/03/18 06:27:44;;;;;;;9.03;3.87;;;8.90;39.90;;;;;;5000677;28;20132;-63
2021/03/18 06:30:11;;;;;;;6.60;3.67;;;8.90;39.20;;;;;;5001050;28;20112;-63
2021/03/18 06:32:37;;;;;;;5.70;3.53;;;8.80;39.60;;;;;;4996859;28;20053;-63
2021/03/18 06:35:03;;;;;;;9.23;4.00;;;8.80;40.30;;;;;;5003246;28;20033;-63
2021/03/18 06:37:36;;;;;;;9.63;4.47;;;8.90;39.80;;;;;;4997456;28;21009;-63
2021/03/18 06:40:10;;;;;;;6.27;4.30;;;8.90;40.10;;;;;;5001075;28;20037;-65
2021/03/18 06:42:37;;;;;;;7.17;4.37;;;8.80;40.70;;;;;;5012848;28;20046;-64
2021/03/18 06:45:14;;;;;;;7.77;4.33;;;8.90;40.10;;;;;;5002047;28;20120;-65
2021/03/18 06:47:55;;;;;;;5.40;3.83;;;8.90;41.50;;;;;;4981888;28;20053;-64
2021/03/18 06:50:29;;;;;;;6.67;4.10;;;8.90;41.90;;;;;;5004276;28;20044;-64
2021/03/18 06:56:23;;;;;;;7.07;4.30;;;9.00;41.40;;;;;;4953003;28;20074;-64
2021/03/18 06:58:49;;;;;;;8.40;4.37;;;8.70;41.50;;;;;;4998269;28;20041;-64
2021/03/18 07:01:22;;;;;;;10.50;4.23;;;8.90;41.20;;;;;;5009005;28;20501;-64
2021/03/18 07:03:48;;;;;;;7.07;4.47;;;9.00;41.70;;;;;;5003803;28;20050;-64
2021/03/18 07:06:35;;;;;;;8.10;5.10;;;9.00;41.30;;;;;;5008217;28;20495;-64
2021/03/18 07:09:08;;;;;;;9.63;4.73;;;9.00;42.00;;;;;;5003048;28;20151;-64
2021/03/18 07:11:40;;;;;;;7.10;4.10;;;8.80;42.10;;;;;;5003205;28;20065;-64
2021/03/18 07:14:07;;;;;;;9.47;4.97;;;8.90;42.40;;;;;;4999614;28;20073;-63
2021/03/18 07:16:47;;;;;;;7.57;4.30;;;9.00;41.70;;;;;;5004626;28;20387;-64
2021/03/18 07:19:24;;;;;;;7.60;4.03;;;9.00;42.60;;;;;;4992048;28;20042;-64
2021/03/18 07:21:51;;;;;;;7.90;4.63;;;8.90;42.40;;;;;;4994344;28;20565;-63
2021/03/18 07:24:24;;;;;;;10.30;4.20;;;8.90;42.10;;;;;;5003630;28;21971;-64
2021/03/18 07:26:51;;;;;;;11.10;3.93;;;8.90;42.30;;;;;;5005820;28;20172;-64
2021/03/18 07:29:25;;;;;;;11.20;4.60;;;8.90;42.90;;;;;;5002435;28;20121;-65
2021/03/18 07:31:51;;;;;;;7.67;4.03;;;8.90;43.30;;;;;;5011046;28;20045;-64
2021/03/18 07:34:17;;;;;;;6.97;4.10;;;9.00;42.80;;;;;;5004174;28;20046;-64
2021/03/18 07:36:47;;;;;;;11.00;4.13;;;8.90;44.10;;;;;;4992720;28;20713;-64
2021/03/18 07:39:13;;;;;;;8.37;4.27;;;8.90;43.70;;;;;;4995076;28;20534;-64
2021/03/18 07:41:39;;;;;;;5.70;4.43;;;9.00;44.10;;;;;;4991963;28;20062;-64
2021/03/18 07:44:06;;;;;;;6.90;4.20;;;9.00;43.00;;;;;;5000917;28;20133;-65
2021/03/18 07:46:34;;;;;;;5.60;4.33;;;9.00;44.10;;;;;;4997579;28;20049;-64
2021/03/18 07:49:04;;;;;;;9.83;3.60;;;9.10;43.20;;;;;;4999053;28;20054;-65
2021/03/18 07:51:31;;;;;;;9.60;3.57;;;9.20;43.50;;;;;;4992016;28;20925;-65
2021/03/18 07:53:59;;;;;;;8.00;4.23;;;9.00;43.10;;;;;;4997098;28;20128;-63
2021/03/18 07:56:26;;;;;;;8.17;3.97;;;8.90;43.50;;;;;;4988307;28;20122;-63
2021/03/18 07:58:53;;;;;;;6.13;3.27;;;9.00;43.20;;;;;;4994157;28;20042;-64
2021/03/18 08:01:31;;;;;;;5.57;3.13;;;9.00;43.70;;;;;;4991815;28;20046;-63
2021/03/18 08:04:09;;;;;;;9.17;4.30;;;9.10;43.60;;;;;;4999388;28;20041;-64
2021/03/18 08:06:40;;;;;;;5.63;3.87;;;9.30;43.30;;;;;;4995844;28;20503;-64
2021/03/18 08:09:12;;;;;;;6.87;3.70;;;9.30;42.70;;;;;;4998223;28;20042;-63
2021/03/18 08:11:39;;;;;;;5.57;3.00;;;9.30;42.60;;;;;;4997489;28;20390;-64
2021/03/18 08:14:16;;;;;;;6.63;3.37;;;9.30;42.10;;;;;;4997008;28;20065;-64
2021/03/18 08:16:42;;;;;;;6.80;3.40;;;9.30;42.80;;;;;;4968204;28;20042;-63
2021/03/18 08:19:19;;;;;;;7.53;3.47;;;9.30;42.80;;;;;;4997853;28;20065;-64
2021/03/18 08:21:50;;;;;;;6.10;3.40;;;9.40;42.80;;;;;;5005911;28;20038;-64
2021/03/18 08:24:21;;;;;;;7.20;3.60;;;9.40;42.80;;;;;;4996301;28;20065;-65
2021/03/18 08:27:01;;;;;;;5.07;2.43;;;9.40;42.50;;;;;;4996029;28;20050;-64
2021/03/18 08:29:42;;;;;;;5.37;3.10;;;9.50;42.20;;;;;;4994371;28;20054;-64
2021/03/18 08:32:12;;;;;;;4.27;2.23;;;9.40;41.60;;;;;;4987228;28;20057;-65
2021/03/18 08:34:51;;;;;;;7.70;2.70;;;9.40;41.80;;;;;;4995176;28;20044;-64
2021/03/18 08:37:38;;;;;;;3.50;2.30;;;9.40;41.40;;;;;;4993167;28;20046;-65
2021/03/18 08:40:12;;;;;;;4.57;2.80;;;9.40;41.20;;;;;;4996727;28;20081;-65
2021/03/18 08:42:39;;;;;;;2.93;2.50;;;9.50;40.70;;;;;;4989005;28;20687;-64
2021/03/18 08:45:28;;;;;;;5.60;2.53;;;9.60;40.60;;;;;;4999553;28;20034;-65
2021/03/18 08:47:57;;;;;;;7.30;2.90;;;9.60;40.70;;;;;;4963610;28;20046;-65
2021/03/18 08:50:25;;;;;;;4.37;2.67;;;9.80;40.40;;;;;;4995126;28;20044;-62
2021/03/18 08:52:53;;;;;;;5.07;2.83;;;9.60;40.00;;;;;;4994549;28;20574;-63
2021/03/18 08:55:37;;;;;;;7.70;2.60;;;9.80;40.00;;;;;;5000714;28;20118;-63
2021/03/18 08:58:04;;;;;;;4.70;2.55;;;9.80;40.00;;;;;;4989663;28;20915;-63
2021/03/18 09:00:31;;;;;;;5.50;2.43;;;9.80;39.70;;;;;;4992213;28;20678;-64
2021/03/18 09:02:57;;;;;;;5.37;2.70;;;9.90;39.40;;;;;;4989953;28;20061;-64
2021/03/18 09:05:27;;;;;;;3.93;2.50;;;10.00;39.10;;;;;;4995064;28;20038;-64
2021/03/18 09:07:58;;;;;;;4.30;2.77;;;10.00;38.90;;;;;;4997886;28;20045;-64
2021/03/18 09:10:32;;;;;;;3.17;2.40;;;10.20;39.00;;;;;;4998389;28;20053;-65
2021/03/18 09:13:03;;;;;;;5.10;1.85;;;10.20;38.20;;;;;;4996675;28;20049;-65
2021/03/18 09:15:34;;;;;;;2.80;2.00;;;10.20;37.80;;;;;;4991071;28;20132;-64
2021/03/18 09:18:12;;;;;;;6.23;1.80;;;10.20;37.90;;;;;;4997930;28;20042;-64
2021/03/18 09:20:40;;;;;;;3.83;1.70;;;10.20;37.80;;;;;;5003602;28;20053;-64
2021/03/18 09:23:19;;;;;;;5.37;2.30;;;10.30;36.70;;;;;;5000946;28;20043;-57
2021/03/18 09:25:47;;;;;;;4.10;2.03;;;10.30;37.20;;;;;;4990042;28;20042;-64
2021/03/18 09:28:13;;;;;;;1.20;1.10;;;10.20;36.60;;;;;;4990718;28;20034;-65
2021/03/18 09:30:45;;;;;;;1.87;1.23;;;10.40;36.10;;;;;;4990271;28;20073;-64
2021/03/18 09:33:30;;;;;;;3.07;1.60;;;10.50;35.30;;;;;;4995378;28;20129;-64
2021/03/18 09:36:02;;;;;;;2.28;1.48;;;10.50;35.90;;;;;;4990901;28;20042;-64
2021/03/18 09:38:31;;;;;;;2.93;1.60;;;10.50;35.80;;;;;;4998509;28;20467;-65
2021/03/18 09:40:59;;;;;;;4.10;1.40;;;10.70;35.60;;;;;;4992992;28;20034;-64
2021/03/18 09:43:27;;;;;;;5.17;1.67;;;10.70;35.20;;;;;;4994027;28;20373;-64
2021/03/18 09:46:01;;;;;;;3.17;1.73;;;10.70;35.10;;;;;;4999060;28;20046;-64
2021/03/18 09:48:38;;;;;;;3.10;1.95;;;10.80;34.80;;;;;;5001221;28;20468;-64
2021/03/18 09:51:18;;;;;;;3.03;1.57;;;10.90;35.10;;;;;;4992249;28;20046;-65
2021/03/18 09:53:55;;;;;;;2.87;2.20;;;11.10;34.90;;;;;;4975141;28;20046;-64
2021/03/18 09:56:22;;;;;;;3.20;1.77;;;11.10;34.80;;;;;;4992699;28;20546;-64
2021/03/18 09:58:48;;;;;;;3.63;1.70;;;11.20;34.80;;;;;;5001446;28;20975;-63
2021/03/18 10:01:19;;;;;;;3.43;2.23;;;11.30;34.90;;;;;;4993494;28;20061;-64
2021/03/18 10:04:14;;;;;;;2.73;1.67;;;11.40;34.40;;;;;;5000069;28;20601;-64
2021/03/18 10:06:54;;;;;;;3.35;2.30;;;11.30;34.10;;;;;;4992504;28;20042;-65
2021/03/18 10:09:33;;;;;;;4.23;1.87;;;11.40;33.80;;;;;;5003563;28;20034;-64
2021/03/18 10:11:59;;;;;;;6.70;2.40;;;11.70;33.50;;;;;;4994168;28;20083;-64
2021/03/18 10:14:46;;;;;;;5.40;2.27;;;11.80;32.90;;;;;;4994523;28;20066;-64
2021/03/18 10:17:15;;;;;;;3.30;2.40;;;11.70;31.70;;;;;;4970852;28;20052;-64
2021/03/18 10:19:48;;;;;;;3.40;1.90;;;11.70;32.70;;;;;;4997456;28;20479;-65
2021/03/18 10:22:14;;;;;;;3.13;2.30;;;11.70;32.90;;;;;;4992406;28;20045;-65
2021/03/18 10:24:40;;;;;;;3.07;1.80;;;11.90;32.70;;;;;;4999574;28;20041;-64
2021/03/18 10:27:15;;;;;;;5.17;2.83;;;12.00;31.80;;;;;;4992858;28;20578;-65
2021/03/18 10:29:42;;;;;;;5.93;2.57;;;12.10;31.50;;;;;;4995468;28;20073;-63
2021/03/18 10:32:11;;;;;;;10.93;3.27;;;12.00;32.10;;;;;;4995865;28;20072;-63
2021/03/18 10:34:37;;;;;;;3.47;2.27;;;12.00;32.10;;;;;;5000639;28;20963;-63
2021/03/18 10:37:03;;;;;;;3.47;2.27;;;12.10;32.60;;;;;;4995715;28;20345;-65
2021/03/18 10:39:28;;;;;;;6.83;2.37;;;12.50;31.70;;;;;;4997640;28;20049;-64
2021/03/18 10:41:59;;;;;;;3.50;1.80;;;12.60;31.40;;;;;;4995415;28;20045;-64
2021/03/18 10:44:41;;;;;;;2.03;1.83;;;12.60;31.50;;;;;;5001233;28;20510;-64
2021/03/18 10:47:39;;;;;;;4.63;1.90;;;12.50;31.60;;;;;;4989331;28;20054;-64
2021/03/18 10:50:06;;;;;;;3.43;2.30;;;12.10;32.20;;;;;;4998270;28;20121;-64
2021/03/18 10:52:33;;;;;;;4.73;2.77;;;12.20;32.50;;;;;;4994127;28;20121;-64
2021/03/18 10:54:59;;;;;;;2.60;2.40;;;12.30;32.20;;;;;;5003271;28;20414;-65
2021/03/18 10:57:27;;;;;;;5.63;3.03;;;12.50;31.70;;;;;;4992265;28;20057;-64
2021/03/18 11:00:05;;;;;;;3.40;1.87;;;12.90;31.60;;;;;;4998776;28;20042;-65
2021/03/18 11:02:31;;;;;;;10.00;2.80;;;13.20;30.80;;;;;;4994286;28;20154;-65
2021/03/18 11:04:59;;;;;;;4.60;2.43;;;13.50;30.50;;;;;;5000454;28;21294;-65
2021/03/18 11:07:26;;;;;;;6.30;2.50;;;13.50;30.40;;;;;;4999567;28;20169;-65
2021/03/18 11:10:11;;;;;;;3.33;2.50;;;13.60;30.00;;;;;;5002232;28;20026;-71
2021/03/18 11:12:41;;;;;;;4.07;3.15;;;13.50;30.90;;;;;;5006118;28;20054;-70
2021/03/18 11:15:09;;;;;;;3.47;2.88;;;13.40;31.00;;;;;;4994869;28;20050;-70
2021/03/18 11:17:35;;;;;;;4.90;2.70;;;13.40;31.00;;;;;;4999831;28;20046;-65
2021/03/18 11:20:08;;;;;;;6.78;2.78;;;13.40;30.90;;;;;;4993555;28;20965;-66
2021/03/18 11:22:34;;;;;;;4.25;2.50;;;13.30;30.30;;;;;;4992301;28;20045;-65
2021/03/18 11:25:01;;;;;;;5.15;1.90;;;13.40;30.30;;;;;;4994041;28;20046;-65
2021/03/18 11:27:26;;;;;;;2.03;1.88;;;13.50;29.80;;;;;;4999897;28;20042;-65
2021/03/18 11:29:52;;;;;;;3.23;2.40;;;13.50;29.00;;;;;;4994955;28;20041;-63
2021/03/18 11:32:25;;;;;;;3.58;2.15;;;13.40;29.70;;;;;;5003832;28;20076;-64
2021/03/18 11:34:59;;;;;;;3.35;2.17;;;13.80;29.10;;;;;;4998705;28;20089;-64
2021/03/18 11:37:25;;;;;;;6.43;2.80;;;13.90;28.50;;;;;;5002311;28;20119;-64
2021/03/18 11:39:51;;;;;;;4.55;2.58;;;13.80;28.60;;;;;;4998265;28;21221;-64
2021/03/18 11:42:17;;;;;;;3.72;2.88;;;13.80;28.80;;;;;;5001795;28;20034;-64
2021/03/18 11:44:43;;;;;;;6.35;2.40;;;13.60;28.60;;;;;;4999308;28;20034;-64
2021/03/18 11:47:10;;;;;;;2.95;2.42;;;13.60;28.60;;;;;;5004573;28;20031;-65
2021/03/18 11:49:37;;;;;;;5.57;3.22;;;13.30;28.70;;;;;;4998158;28;20392;-55
2021/03/18 11:52:04;;;;;;;6.43;3.35;;;13.30;28.70;;;;;;5001716;28;20034;-65
2021/03/18 11:54:30;;;;;;;5.20;3.17;;;13.50;28.60;;;;;;5000378;28;20047;-65
2021/03/18 11:56:56;;;;;;;5.35;2.95;;;13.60;28.20;;;;;;5000935;28;20057;-65
2021/03/18 11:59:21;;;;;;;8.38;3.10;;;13.70;28.10;;;;;;5013823;28;20498;-65
2021/03/18 12:01:47;;;;;;;4.55;2.42;;;13.80;27.50;;;;;;5000399;28;20038;-66
2021/03/18 12:04:13;;;;;;;6.47;2.25;;;13.90;27.50;;;;;;5002835;28;20058;-66
2021/03/18 12:06:38;;;;;;;4.18;2.55;;;13.80;27.50;;;;;;5000173;28;20042;-64
2021/03/18 12:09:05;;;;;;;2.42;2.22;;;14.00;27.00;;;;;;5002330;28;20074;-65
2021/03/18 12:11:32;;;;;;;4.37;2.13;;;14.30;27.00;;;;;;4982436;28;20050;-65
2021/03/18 12:13:58;;;;;;;3.97;2.35;;;14.50;26.70;;;;;;4990893;28;20487;-65
2021/03/18 12:16:24;;;;;;;5.05;2.75;;;14.70;26.20;;;;;;4987594;28;20045;-66
2021/03/18 12:18:50;;;;;;;4.75;2.28;;;14.40;26.50;;;;;;4991606;28;20049;-66
2021/03/18 12:21:15;;;;;;;8.40;3.10;;;14.50;26.70;;;;;;4988178;28;20042;-65
2021/03/18 12:23:41;;;;;;;4.65;2.70;;;14.90;26.00;;;;;;4991324;28;20488;-65
2021/03/18 12:26:06;;;;;;;5.68;3.28;;;15.10;24.50;;;;;;4987352;28;20096;-63
2021/03/18 12:28:32;;;;;;;4.82;2.60;;;15.10;24.70;;;;;;4992670;28;20049;-65
2021/03/18 12:30:58;;;;;;;2.95;2.05;;;15.10;25.10;;;;;;4987285;28;20038;-65
2021/03/18 12:33:23;;;;;;;3.25;2.30;;;15.20;25.20;;;;;;4990361;28;20050;-65
2021/03/18 12:35:51;;;;;;;3.22;2.15;;;15.00;25.00;;;;;;4991363;28;20049;-66
2021/03/18 12:38:19;;;;;;;7.85;2.10;;;14.50;25.50;;;;;;4989927;28;20057;-66
2021/03/18 12:40:45;;;;;;;3.35;2.10;;;13.60;26.90;;;;;;4990364;28;20038;-65
2021/03/18 12:43:10;;;;;;;4.15;1.65;;;12.70;28.30;;;;;;4987392;28;20057;-65
2021/03/18 12:45:36;;;;;;;4.13;2.20;;;12.30;30.00;;;;;;4992799;28;20070;-64
2021/03/18 12:48:03;;;;;;;5.78;2.22;;;12.00;30.80;;;;;;4987084;28;20040;-63
2021/03/18 12:50:29;;;;;;;7.15;2.00;;;11.90;33.10;;;;;;4997227;28;20407;-63
2021/03/18 12:52:55;;;;;;;5.50;1.55;;;11.40;34.40;;;;;;4988285;28;20053;-63
2021/03/18 12:55:22;;;;;;;2.27;1.67;;;11.10;35.40;;;;;;4992487;28;20935;-64
2021/03/18 12:57:48;;;;;;;3.93;1.60;;;11.20;35.10;;;;;;4986855;28;20514;-63
2021/03/18 13:00:17;;;;;;;2.27;1.20;;;11.20;36.00;;;;;;4991382;28;20033;-63
2021/03/18 13:02:43;;;;;;;4.33;1.67;;;11.20;37.30;;;;;;4987551;28;20053;-63
2021/03/18 13:05:09;;;;;;;4.50;1.73;;;11.00;39.30;;;;;;4995799;28;20138;-64
2021/03/18 13:07:35;;;;;;;5.87;1.57;;;10.80;39.00;;;;;;4994283;28;20499;-64
2021/03/18 13:10:01;;;;;;;2.77;1.50;;;10.50;41.80;;;;;;4990775;28;20596;-64
2021/03/18 13:12:27;;;;;;;3.30;1.90;;;10.70;42.30;;;;;;4987575;28;20507;-63
2021/03/18 13:14:53;;;;;;;4.07;1.80;;;10.70;41.90;;;;;;4989450;28;20136;-63
2021/03/18 13:17:18;;;;;;;2.97;1.90;;;10.80;41.80;;;;;;5007726;28;20100;-63